Time;durP1;ratioP1;P1;durP2;ratioP2;P2;SDS_P1;SDS_P2;PMS_P1;PMS_P2;Temp;Humidity;BMP_temperature;BMP_pressure;BME280_temperature;BME280_humidity;BME280_pressure;Samples;Min_cycle;Max_cycle;Signal;HPM_P1;HPM_P2
2023/05/09 00:00:43;;;;;;;11.20;8.10;;;15.10;99.90;;;;;;5055368;28;20180;-62
2023/05/09 00:03:08;;;;;;;10.02;8.02;;;15.00;99.90;;;;;;5055367;28;20592;-62
2023/05/09 00:05:34;;;;;;;9.10;7.53;;;15.10;99.90;;;;;;5055528;28;20195;-62
2023/05/09 00:08:00;;;;;;;11.70;7.95;;;15.10;99.90;;;;;;5055158;28;20172;-62
2023/05/09 00:10:26;;;;;;;10.73;8.75;;;15.10;99.90;;;;;;5054932;28;20231;-62
2023/05/09 00:12:52;;;;;;;10.63;8.13;;;15.00;99.90;;;;;;5055204;28;20234;-62
2023/05/09 00:15:18;;;;;;;10.38;7.95;;;15.10;99.90;;;;;;5054625;28;20649;-62
2023/05/09 00:17:44;;;;;;;9.77;8.15;;;15.10;99.90;;;;;;5055070;28;20262;-62
2023/05/09 00:20:11;;;;;;;9.98;7.90;;;15.10;99.90;;;;;;5054965;28;20179;-62
2023/05/09 00:22:41;;;;;;;10.80;8.43;;;15.10;99.90;;;;;;5054855;28;20171;-62
2023/05/09 00:25:08;;;;;;;10.90;8.43;;;15.10;99.90;;;;;;5054884;28;20202;-62
2023/05/09 00:27:34;;;;;;;10.90;8.05;;;15.00;99.90;;;;;;5054982;28;20168;-61
2023/05/09 00:30:00;;;;;;;8.52;7.63;;;15.00;99.90;;;;;;5054705;28;20219;-62
2023/05/09 00:32:27;;;;;;;8.43;7.47;;;15.00;99.90;;;;;;5054733;28;20175;-62
2023/05/09 00:34:53;;;;;;;9.63;7.97;;;15.00;99.90;;;;;;5054703;28;20758;-61
2023/05/09 00:37:19;;;;;;;9.32;8.27;;;15.00;99.90;;;;;;5054589;28;20207;-61
2023/05/09 00:39:48;;;;;;;8.07;7.28;;;15.00;99.90;;;;;;5054802;28;20172;-62
2023/05/09 00:42:14;;;;;;;11.30;8.45;;;15.00;99.90;;;;;;5054764;28;20183;-61
2023/05/09 00:44:40;;;;;;;8.38;7.32;;;15.10;99.90;;;;;;5054966;28;20293;-62
2023/05/09 00:47:06;;;;;;;9.25;7.88;;;15.10;99.90;;;;;;5054509;28;20258;-60
2023/05/09 00:49:32;;;;;;;10.80;7.75;;;15.10;99.90;;;;;;5054366;28;20663;-61
2023/05/09 00:51:58;;;;;;;10.90;7.80;;;15.00;99.90;;;;;;5054331;28;20210;-62
2023/05/09 00:54:24;;;;;;;10.25;7.80;;;15.10;99.90;;;;;;5054490;28;20557;-62
2023/05/09 00:56:50;;;;;;;9.55;7.93;;;15.00;99.90;;;;;;5054484;28;20591;-62
2023/05/09 00:59:17;;;;;;;11.45;7.75;;;15.00;99.90;;;;;;5054341;28;20533;-62
2023/05/09 01:01:42;;;;;;;8.40;7.55;;;15.00;99.90;;;;;;5054329;28;20179;-62
2023/05/09 01:04:09;;;;;;;9.05;7.63;;;15.00;99.90;;;;;;5054147;28;20236;-62
2023/05/09 01:06:54;;;;;;;9.35;7.80;;;15.00;99.90;;;;;;5054088;28;20178;-62
2023/05/09 01:09:35;;;;;;;8.50;7.50;;;15.00;99.90;;;;;;5054151;28;20199;-62
2023/05/09 01:12:06;;;;;;;9.45;7.28;;;15.10;99.90;;;;;;5054052;28;20175;-61
2023/05/09 01:14:45;;;;;;;8.43;6.95;;;15.00;99.90;;;;;;5053914;28;20262;-61
2023/05/09 01:17:23;;;;;;;8.57;7.30;;;15.00;99.90;;;;;;5053880;28;20210;-62
2023/05/09 01:20:01;;;;;;;9.18;7.50;;;15.00;99.90;;;;;;5054082;28;20264;-62
2023/05/09 01:22:33;;;;;;;7.68;6.88;;;15.00;99.90;;;;;;5053802;28;20257;-62
2023/05/09 01:25:27;;;;;;;8.95;7.88;;;15.00;99.90;;;;;;5053772;28;20182;-62
2023/05/09 01:28:30;;;;;;;8.10;7.30;;;15.00;99.90;;;;;;5052909;28;20662;-62
2023/05/09 01:30:57;;;;;;;8.13;7.13;;;15.00;99.90;;;;;;5046850;28;20679;-62
2023/05/09 01:33:25;;;;;;;11.07;7.63;;;15.00;99.90;;;;;;5053566;28;20202;-62
2023/05/09 01:35:56;;;;;;;8.52;7.30;;;15.00;99.90;;;;;;5053431;28;20175;-62
2023/05/09 01:38:24;;;;;;;8.75;7.85;;;15.00;99.90;;;;;;5053670;28;20167;-62
2023/05/09 01:40:53;;;;;;;8.15;7.43;;;15.00;99.90;;;;;;5053596;28;20167;-62
2023/05/09 01:43:21;;;;;;;8.75;7.57;;;15.00;99.90;;;;;;5053491;28;20254;-62
2023/05/09 01:45:49;;;;;;;9.43;7.90;;;15.00;99.90;;;;;;5053480;28;20172;-61
2023/05/09 01:48:15;;;;;;;8.73;7.90;;;15.00;99.90;;;;;;5052029;28;20309;-61
2023/05/09 01:50:43;;;;;;;8.40;7.40;;;15.00;99.90;;;;;;5053214;28;20649;-62
2023/05/09 01:53:10;;;;;;;9.63;7.97;;;15.00;99.90;;;;;;5053589;28;20266;-61
2023/05/09 01:55:38;;;;;;;9.15;7.80;;;15.00;99.90;;;;;;5053365;28;20270;-62
2023/05/09 01:58:05;;;;;;;8.10;7.20;;;15.00;99.90;;;;;;5053266;28;20179;-61
2023/05/09 02:00:32;;;;;;;8.18;7.10;;;14.90;99.90;;;;;;5053262;28;20169;-62
2023/05/09 02:03:00;;;;;;;8.45;7.32;;;14.90;99.90;;;;;;5053094;28;20229;-62
2023/05/09 02:05:28;;;;;;;9.30;7.80;;;14.90;99.90;;;;;;5053118;28;20632;-61
2023/05/09 02:07:59;;;;;;;9.77;7.70;;;14.90;99.90;;;;;;5053109;28;20226;-61
2023/05/09 02:10:29;;;;;;;9.38;7.40;;;14.90;99.90;;;;;;5052997;28;20664;-62
2023/05/09 02:12:56;;;;;;;7.20;6.50;;;14.80;99.90;;;;;;5053094;28;20644;-61
2023/05/09 02:15:22;;;;;;;8.38;7.40;;;14.80;99.90;;;;;;5052961;28;20225;-62
2023/05/09 02:17:48;;;;;;;7.55;6.82;;;14.90;99.90;;;;;;5053203;28;20309;-61
2023/05/09 02:20:13;;;;;;;9.20;7.35;;;14.80;99.90;;;;;;5051939;28;20670;-62
2023/05/09 02:22:42;;;;;;;9.30;7.43;;;14.80;99.90;;;;;;5053085;28;20651;-62
2023/05/09 02:25:13;;;;;;;8.70;7.07;;;14.80;99.90;;;;;;5053066;28;20167;-62
2023/05/09 02:27:41;;;;;;;8.90;7.10;;;14.80;99.90;;;;;;5053028;28;20171;-62
2023/05/09 02:30:11;;;;;;;7.68;6.88;;;14.80;99.90;;;;;;5052586;28;20207;-62
2023/05/09 02:32:39;;;;;;;8.00;6.95;;;14.80;99.90;;;;;;5053120;28;20202;-62
2023/05/09 02:35:08;;;;;;;7.70;6.90;;;14.80;99.90;;;;;;5052988;28;20171;-62
2023/05/09 02:37:34;;;;;;;7.13;6.50;;;14.80;99.90;;;;;;5053385;28;20250;-62
2023/05/09 02:40:00;;;;;;;8.27;6.68;;;14.80;99.90;;;;;;5056824;28;20273;-61
2023/05/09 02:42:27;;;;;;;8.25;6.68;;;14.90;99.90;;;;;;5056756;28;20182;-62
2023/05/09 02:44:54;;;;;;;7.95;7.22;;;14.90;99.90;;;;;;5056898;28;20175;-62
2023/05/09 02:47:20;;;;;;;7.90;6.95;;;14.90;99.90;;;;;;5056657;28;20227;-62
2023/05/09 02:49:46;;;;;;;8.07;6.90;;;14.90;99.90;;;;;;5056575;28;20203;-61
2023/05/09 02:52:12;;;;;;;7.30;6.57;;;14.90;99.90;;;;;;5056618;28;20183;-61
2023/05/09 02:54:38;;;;;;;7.85;7.05;;;14.90;99.90;;;;;;5056547;28;20233;-61
2023/05/09 02:57:04;;;;;;;8.48;6.50;;;14.90;99.90;;;;;;5056432;28;20175;-62
2023/05/09 02:59:30;;;;;;;7.35;6.65;;;14.80;99.90;;;;;;5056665;28;20694;-62
2023/05/09 03:01:56;;;;;;;7.50;6.70;;;14.80;99.90;;;;;;5056638;28;20172;-61
2023/05/09 03:04:22;;;;;;;7.30;6.55;;;14.90;99.90;;;;;;5055142;28;20182;-62
2023/05/09 03:06:47;;;;;;;8.00;6.60;;;14.90;99.90;;;;;;5056308;28;20309;-62
2023/05/09 03:09:13;;;;;;;7.38;6.03;;;14.90;99.90;;;;;;5056146;28;20293;-62
2023/05/09 03:11:39;;;;;;;7.68;6.72;;;14.90;99.90;;;;;;5056150;28;20179;-62
2023/05/09 03:14:05;;;;;;;7.85;6.38;;;14.90;99.90;;;;;;5056084;28;20185;-62
2023/05/09 03:16:30;;;;;;;7.03;6.15;;;14.90;99.90;;;;;;5056288;28;20176;-62
2023/05/09 03:18:56;;;;;;;6.85;6.15;;;14.80;99.90;;;;;;5056144;28;20178;-61
2023/05/09 03:21:22;;;;;;;8.05;6.88;;;14.80;99.90;;;;;;5056286;28;20245;-62
2023/05/09 03:23:47;;;;;;;7.20;6.47;;;14.80;99.90;;;;;;5056316;28;20176;-62
2023/05/09 03:26:13;;;;;;;7.38;6.57;;;14.80;99.90;;;;;;5055948;28;20529;-61
2023/05/09 03:28:39;;;;;;;6.57;5.97;;;14.80;99.90;;;;;;5056135;28;20219;-61
2023/05/09 03:31:05;;;;;;;7.65;6.85;;;14.80;99.90;;;;;;5055896;28;20217;-62
2023/05/09 03:33:31;;;;;;;7.85;6.80;;;14.80;99.90;;;;;;5055937;28;20257;-61
2023/05/09 03:35:56;;;;;;;7.57;6.78;;;14.80;99.90;;;;;;5055853;28;20277;-61
2023/05/09 03:38:25;;;;;;;8.60;6.38;;;14.80;99.90;;;;;;5055772;28;20186;-62
2023/05/09 03:40:52;;;;;;;8.05;6.80;;;14.80;99.90;;;;;;5055687;28;20185;-62
2023/05/09 03:43:18;;;;;;;7.72;6.35;;;14.80;99.90;;;;;;5055832;28;20171;-61
2023/05/09 03:45:44;;;;;;;8.63;7.32;;;14.80;99.90;;;;;;5055776;28;20178;-62
2023/05/09 03:48:10;;;;;;;8.85;7.03;;;14.70;99.90;;;;;;5055606;28;20231;-62
2023/05/09 03:50:36;;;;;;;7.30;6.60;;;14.70;99.90;;;;;;5054593;28;20240;-62
2023/05/09 03:53:02;;;;;;;8.93;7.28;;;14.70;99.90;;;;;;5055487;28;20270;-62
2023/05/09 03:55:28;;;;;;;8.50;7.22;;;14.70;99.90;;;;;;5055336;28;20176;-61
2023/05/09 03:57:54;;;;;;;10.05;7.15;;;14.80;99.90;;;;;;5055540;28;20313;-61
2023/05/09 04:00:21;;;;;;;8.73;7.07;;;14.80;99.90;;;;;;5055241;28;20659;-61
2023/05/09 04:02:49;;;;;;;10.02;7.72;;;14.80;99.90;;;;;;5055483;28;20696;-62
2023/05/09 04:05:16;;;;;;;9.35;7.30;;;14.80;99.90;;;;;;5055257;28;20628;-62
2023/05/09 04:07:42;;;;;;;9.32;8.00;;;14.80;99.90;;;;;;5055245;28;20175;-61
2023/05/09 04:10:08;;;;;;;8.30;6.80;;;14.70;99.90;;;;;;5055003;28;20701;-61
2023/05/09 04:12:34;;;;;;;7.88;7.07;;;14.70;99.90;;;;;;5055035;28;20186;-62
2023/05/09 04:14:59;;;;;;;9.40;7.53;;;14.80;99.90;;;;;;5055248;28;20176;-62
2023/05/09 04:17:25;;;;;;;8.10;7.18;;;14.70;99.90;;;;;;5055138;28;20175;-61
2023/05/09 04:19:51;;;;;;;9.75;7.28;;;14.70;99.90;;;;;;5055065;28;20203;-61
2023/05/09 04:22:17;;;;;;;8.05;7.20;;;14.70;99.90;;;;;;5054984;28;20170;-61
2023/05/09 04:24:43;;;;;;;8.13;7.00;;;14.70;99.90;;;;;;5054804;28;20179;-61
2023/05/09 04:27:08;;;;;;;9.68;7.10;;;14.80;99.90;;;;;;5054820;28;20176;-62
2023/05/09 04:29:34;;;;;;;10.73;7.78;;;14.70;99.90;;;;;;5054873;28;20203;-62
2023/05/09 04:32:00;;;;;;;7.55;6.80;;;14.80;99.90;;;;;;5054865;28;20183;-61
2023/05/09 04:34:28;;;;;;;9.07;7.28;;;14.80;99.90;;;;;;5054740;28;20220;-62
2023/05/09 04:36:53;;;;;;;9.20;7.55;;;14.80;99.90;;;;;;5054660;28;20186;-62
2023/05/09 04:39:19;;;;;;;8.15;7.35;;;14.80;99.90;;;;;;5054534;28;20513;-61
2023/05/09 04:41:46;;;;;;;8.35;7.55;;;14.70;99.90;;;;;;5054683;28;20237;-61
2023/05/09 04:44:12;;;;;;;7.90;7.00;;;14.80;99.90;;;;;;5054576;28;20183;-61
2023/05/09 04:46:39;;;;;;;9.27;7.82;;;14.80;99.90;;;;;;5054453;28;20184;-62
2023/05/09 04:49:04;;;;;;;10.68;7.95;;;14.80;99.90;;;;;;5054433;28;20660;-61
2023/05/09 04:51:30;;;;;;;9.00;8.10;;;14.70;99.90;;;;;;5054411;28;20183;-61
2023/05/09 04:53:56;;;;;;;8.70;7.80;;;14.70;99.90;;;;;;5054207;28;20172;-61
2023/05/09 04:56:22;;;;;;;9.75;8.23;;;14.70;99.90;;;;;;5054466;28;20575;-61
2023/05/09 04:58:47;;;;;;;8.70;7.80;;;14.70;99.90;;;;;;5054261;28;20217;-62
2023/05/09 05:01:13;;;;;;;10.07;8.57;;;14.70;99.90;;;;;;5054169;28;20172;-62
2023/05/09 05:03:39;;;;;;;9.82;8.32;;;14.70;99.90;;;;;;5054085;28;20175;-63
2023/05/09 05:06:05;;;;;;;8.60;7.40;;;14.70;99.90;;;;;;5054111;28;20556;-62
2023/05/09 05:08:31;;;;;;;9.68;8.27;;;14.80;99.90;;;;;;5053929;28;20175;-61
2023/05/09 05:10:57;;;;;;;10.52;8.88;;;14.80;99.90;;;;;;5054079;28;20359;-61
2023/05/09 05:13:22;;;;;;;9.25;8.35;;;14.80;99.90;;;;;;5052938;28;20187;-61
2023/05/09 05:15:48;;;;;;;9.80;8.80;;;14.90;99.90;;;;;;5053990;28;20232;-62
2023/05/09 05:18:14;;;;;;;9.18;8.27;;;14.80;99.90;;;;;;5053901;28;20259;-61
2023/05/09 05:20:41;;;;;;;8.88;7.82;;;14.80;99.90;;;;;;5053919;28;20226;-62
2023/05/09 05:23:07;;;;;;;10.10;8.52;;;14.80;99.90;;;;;;5053694;28;20179;-61
2023/05/09 05:25:33;;;;;;;9.07;8.05;;;14.70;99.90;;;;;;5053908;28;20640;-61
2023/05/09 05:27:59;;;;;;;9.65;8.65;;;14.80;99.90;;;;;;5053886;28;20167;-61
2023/05/09 05:30:24;;;;;;;8.98;8.07;;;14.70;99.90;;;;;;5053664;28;20732;-61
2023/05/09 05:32:50;;;;;;;10.45;8.50;;;14.80;99.90;;;;;;5053731;28;20698;-61
2023/05/09 05:35:16;;;;;;;9.45;7.93;;;14.80;99.90;;;;;;5053816;28;20206;-61
2023/05/09 05:37:43;;;;;;;10.40;8.32;;;14.80;99.90;;;;;;5053410;28;20185;-61
2023/05/09 05:40:09;;;;;;;9.32;8.35;;;14.80;99.90;;;;;;5053589;28;20262;-61
2023/05/09 05:42:34;;;;;;;9.48;8.50;;;14.80;99.90;;;;;;5053417;28;20262;-61
2023/05/09 05:45:03;;;;;;;10.65;8.70;;;14.80;99.90;;;;;;5053449;28;20205;-61
2023/05/09 05:47:32;;;;;;;10.93;8.73;;;14.90;99.90;;;;;;5053385;28;20238;-61
2023/05/09 05:49:59;;;;;;;12.05;8.82;;;14.90;99.90;;;;;;5053251;28;20241;-61
2023/05/09 05:52:28;;;;;;;9.85;8.45;;;14.90;99.90;;;;;;5053194;28;20313;-61
2023/05/09 05:54:53;;;;;;;9.52;8.60;;;14.90;99.90;;;;;;5052159;28;20542;-62
2023/05/09 05:57:19;;;;;;;9.38;8.48;;;14.90;99.90;;;;;;5053403;28;20175;-62
2023/05/09 05:59:49;;;;;;;8.75;7.90;;;15.00;99.90;;;;;;5053309;28;20187;-62
2023/05/09 06:02:15;;;;;;;10.10;8.35;;;15.00;99.90;;;;;;5053246;28;20654;-60
2023/05/09 06:04:41;;;;;;;8.95;8.05;;;15.00;99.90;;;;;;5053150;28;20175;-62
2023/05/09 06:07:07;;;;;;;9.73;8.00;;;15.00;99.90;;;;;;5053089;28;20205;-62
2023/05/09 06:09:32;;;;;;;8.73;7.82;;;15.00;99.90;;;;;;5053158;28;20210;-62
2023/05/09 06:11:58;;;;;;;9.80;8.80;;;15.00;99.90;;;;;;5053026;28;20214;-63
2023/05/09 06:14:24;;;;;;;9.55;8.60;;;15.00;99.90;;;;;;5052887;28;20175;-62
2023/05/09 06:16:50;;;;;;;10.10;8.15;;;15.00;99.90;;;;;;5053028;28;20178;-62
2023/05/09 06:19:16;;;;;;;9.05;8.13;;;15.10;99.90;;;;;;5052853;28;20190;-62
2023/05/09 06:21:42;;;;;;;8.93;7.97;;;15.10;99.90;;;;;;5053112;28;20175;-62
2023/05/09 06:24:08;;;;;;;8.93;7.93;;;15.10;99.90;;;;;;5053308;28;20581;-61
2023/05/09 06:26:34;;;;;;;10.35;8.80;;;15.10;99.90;;;;;;5053023;28;20640;-61
2023/05/09 06:29:00;;;;;;;8.93;8.02;;;15.10;99.90;;;;;;5052919;28;20182;-62
2023/05/09 06:31:26;;;;;;;11.05;8.85;;;15.10;99.90;;;;;;5052931;28;20183;-62
2023/05/09 06:33:51;;;;;;;9.15;8.30;;;15.10;99.90;;;;;;5052772;28;20647;-62
2023/05/09 06:36:17;;;;;;;8.38;7.45;;;15.20;99.90;;;;;;5053103;28;20266;-61
2023/05/09 06:38:43;;;;;;;9.48;7.70;;;15.20;99.90;;;;;;5053068;28;20186;-61
2023/05/09 06:41:08;;;;;;;8.80;7.57;;;15.20;99.90;;;;;;5052761;28;20640;-62
2023/05/09 06:43:34;;;;;;;10.82;8.95;;;15.20;99.90;;;;;;5052655;28;20608;-61
2023/05/09 06:46:00;;;;;;;10.40;8.80;;;15.20;99.90;;;;;;5052837;28;20225;-61
2023/05/09 06:48:25;;;;;;;9.48;8.35;;;15.20;99.90;;;;;;5052520;28;20361;-61
2023/05/09 06:50:51;;;;;;;9.05;8.13;;;15.20;99.90;;;;;;5052594;28;20333;-61
2023/05/09 06:53:17;;;;;;;8.65;7.78;;;15.30;99.90;;;;;;5051631;28;20191;-61
2023/05/09 06:55:43;;;;;;;9.27;8.18;;;15.30;99.90;;;;;;5052913;28;20701;-61
2023/05/09 06:58:09;;;;;;;8.95;8.05;;;15.30;99.90;;;;;;5052759;28;20194;-61
2023/05/09 07:00:35;;;;;;;12.20;8.48;;;15.30;99.90;;;;;;5052637;28;20191;-61
2023/05/09 07:03:01;;;;;;;11.32;8.52;;;15.30;99.90;;;;;;5052543;28;20179;-61
2023/05/09 07:05:26;;;;;;;9.45;7.50;;;15.10;99.90;;;;;;5052506;28;20578;-62
2023/05/09 07:07:53;;;;;;;8.95;8.05;;;15.20;99.90;;;;;;5052767;28;20183;-61
2023/05/09 07:10:21;;;;;;;10.43;8.52;;;15.20;99.90;;;;;;5052608;28;20659;-61
2023/05/09 07:12:46;;;;;;;9.63;8.10;;;15.20;99.90;;;;;;5052577;28;20172;-61
2023/05/09 07:15:12;;;;;;;8.70;7.65;;;15.20;99.90;;;;;;5052535;28;20628;-61
2023/05/09 07:17:38;;;;;;;8.95;8.05;;;15.30;99.90;;;;;;5052525;28;20206;-62
2023/05/09 07:20:05;;;;;;;9.18;7.65;;;15.40;99.90;;;;;;5052482;28;20533;-61
2023/05/09 07:22:30;;;;;;;8.63;7.82;;;15.40;99.90;;;;;;5052596;28;20179;-61
2023/05/09 07:24:56;;;;;;;9.27;7.90;;;15.50;99.90;;;;;;5053555;28;20175;-61
2023/05/09 07:27:22;;;;;;;8.20;7.40;;;15.50;99.90;;;;;;5056079;28;20225;-60
2023/05/09 07:29:50;;;;;;;8.32;7.43;;;15.50;99.90;;;;;;5055935;28;20211;-62
2023/05/09 07:32:15;;;;;;;8.75;7.68;;;15.50;99.90;;;;;;5055819;28;20201;-61
2023/05/09 07:34:41;;;;;;;8.43;7.63;;;15.50;99.90;;;;;;5055760;28;20242;-61
2023/05/09 07:37:07;;;;;;;9.65;7.47;;;15.60;99.90;;;;;;5055948;28;20179;-61
2023/05/09 07:39:33;;;;;;;8.35;7.30;;;15.50;99.90;;;;;;5055869;28;20175;-61
2023/05/09 07:41:58;;;;;;;7.80;6.88;;;15.50;99.90;;;;;;5055803;28;20179;-61
2023/05/09 07:44:24;;;;;;;9.18;7.68;;;15.60;99.90;;;;;;5055699;28;20571;-61
2023/05/09 07:46:50;;;;;;;9.02;7.55;;;15.60;99.90;;;;;;5055479;28;20235;-61
2023/05/09 07:49:15;;;;;;;8.43;7.63;;;15.60;99.90;;;;;;5055501;28;20207;-61
2023/05/09 07:51:41;;;;;;;8.05;7.07;;;15.70;99.90;;;;;;5055739;28;20305;-61
2023/05/09 07:54:08;;;;;;;7.93;7.20;;;15.70;99.90;;;;;;5055655;28;20184;-61
2023/05/09 07:56:34;;;;;;;7.85;6.63;;;15.70;99.90;;;;;;5055552;28;20164;-61
2023/05/09 07:59:00;;;;;;;8.45;7.53;;;15.70;99.90;;;;;;5055513;28;20597;-61
2023/05/09 08:01:26;;;;;;;8.38;7.55;;;15.80;99.90;;;;;;5055325;28;20191;-61
2023/05/09 08:03:52;;;;;;;7.18;6.47;;;15.80;99.90;;;;;;5054013;28;20532;-61
2023/05/09 08:06:17;;;;;;;6.78;6.07;;;15.70;99.90;;;;;;5055438;28;20258;-61
2023/05/09 08:08:43;;;;;;;7.13;6.43;;;15.60;99.90;;;;;;5055363;28;20171;-61
2023/05/09 08:11:08;;;;;;;7.20;6.50;;;15.50;99.90;;;;;;5055224;28;20207;-61
2023/05/09 08:13:34;;;;;;;9.00;6.60;;;15.60;99.90;;;;;;5055155;28;20274;-61
2023/05/09 08:16:00;;;;;;;6.95;6.03;;;15.50;99.90;;;;;;5055024;28;20171;-61
2023/05/09 08:18:26;;;;;;;7.22;6.53;;;15.50;99.90;;;;;;5054997;28;20513;-61
2023/05/09 08:20:52;;;;;;;7.80;7.07;;;15.50;99.90;;;;;;5055203;28;20183;-61
2023/05/09 08:23:17;;;;;;;6.75;6.07;;;15.60;99.90;;;;;;5055193;28;20171;-61
2023/05/09 08:25:43;;;;;;;6.80;6.10;;;15.60;99.90;;;;;;5054960;28;20186;-61
2023/05/09 08:28:09;;;;;;;7.43;6.18;;;15.50;99.90;;;;;;5054771;28;20190;-61
2023/05/09 08:30:35;;;;;;;6.75;6.07;;;15.40;99.90;;;;;;5054618;28;20237;-61
2023/05/09 08:33:01;;;;;;;7.13;6.43;;;15.50;99.90;;;;;;5054949;28;20182;-61
2023/05/09 08:35:27;;;;;;;8.32;6.95;;;15.50;99.90;;;;;;5054445;28;20171;-61
2023/05/09 08:37:52;;;;;;;8.07;6.97;;;15.60;99.90;;;;;;5054741;28;20187;-61
2023/05/09 08:40:18;;;;;;;9.05;7.13;;;15.70;99.90;;;;;;5054755;28;20510;-61
2023/05/09 08:42:47;;;;;;;7.75;6.65;;;15.70;99.90;;;;;;5054585;28;20229;-61
2023/05/09 08:45:14;;;;;;;6.68;6.00;;;15.60;99.90;;;;;;5054430;28;20226;-61
2023/05/09 08:47:40;;;;;;;7.45;6.47;;;15.60;99.90;;;;;;5054530;28;20326;-61
2023/05/09 08:50:08;;;;;;;6.60;5.97;;;15.60;99.90;;;;;;5054417;28;20242;-61
2023/05/09 08:52:34;;;;;;;7.50;6.60;;;15.60;99.90;;;;;;5054749;28;20241;-61
2023/05/09 08:55:03;;;;;;;6.30;5.70;;;15.50;99.90;;;;;;5054346;28;20172;-61
2023/05/09 08:57:31;;;;;;;6.90;6.30;;;15.50;99.90;;;;;;5054303;28;20178;-61
2023/05/09 08:59:58;;;;;;;6.70;6.00;;;15.60;99.90;;;;;;5054134;28;20187;-61
2023/05/09 09:02:23;;;;;;;6.57;5.97;;;15.60;99.90;;;;;;5054376;28;20183;-61
2023/05/09 09:04:50;;;;;;;7.55;6.85;;;15.60;99.90;;;;;;5054296;28;20556;-61
2023/05/09 09:07:16;;;;;;;6.63;6.03;;;15.40;99.90;;;;;;5054188;28;20179;-61
2023/05/09 09:09:47;;;;;;;6.88;6.20;;;15.30;99.90;;;;;;5053929;28;20810;-61
2023/05/09 09:12:15;;;;;;;7.68;6.63;;;15.40;99.90;;;;;;5053976;28;20186;-61
2023/05/09 09:14:46;;;;;;;8.80;7.03;;;15.30;99.90;;;;;;5053925;28;20170;-61
2023/05/09 09:17:15;;;;;;;7.38;6.68;;;15.30;99.90;;;;;;5053933;28;20194;-61
2023/05/09 09:19:43;;;;;;;6.95;6.25;;;15.30;99.90;;;;;;5053994;28;20209;-61
2023/05/09 09:22:14;;;;;;;7.80;6.72;;;15.30;99.90;;;;;;5053866;28;20167;-61
2023/05/09 09:24:40;;;;;;;6.93;6.22;;;15.30;99.90;;;;;;5053920;28;20313;-61
2023/05/09 09:27:06;;;;;;;7.25;6.55;;;15.40;99.90;;;;;;5053577;28;20187;-61
2023/05/09 09:29:33;;;;;;;6.78;6.05;;;15.40;99.90;;;;;;5053778;28;20294;-61
2023/05/09 09:32:02;;;;;;;6.55;5.95;;;15.40;99.90;;;;;;5053992;28;20187;-61
2023/05/09 09:34:28;;;;;;;6.68;5.95;;;15.40;99.90;;;;;;5053697;28;20163;-61
2023/05/09 09:36:54;;;;;;;7.55;6.03;;;15.50;99.90;;;;;;5053476;28;20178;-61
2023/05/09 09:39:20;;;;;;;6.95;5.90;;;15.30;99.90;;;;;;5053733;28;20207;-61
2023/05/09 09:41:47;;;;;;;7.40;6.03;;;15.30;99.90;;;;;;5053403;28;20633;-61
2023/05/09 09:44:18;;;;;;;5.78;5.18;;;15.30;99.90;;;;;;5053627;28;20674;-61
2023/05/09 09:46:49;;;;;;;5.40;4.90;;;15.20;99.90;;;;;;5053039;28;22037;-60
2023/05/09 09:49:20;;;;;;;6.55;5.00;;;15.20;99.90;;;;;;5052970;28;20202;-61
2023/05/09 09:51:53;;;;;;;5.93;5.38;;;15.30;99.90;;;;;;5053464;28;20644;-61
2023/05/09 09:54:20;;;;;;;6.18;5.25;;;15.40;99.90;;;;;;5053593;28;20258;-61
2023/05/09 09:56:48;;;;;;;6.50;5.43;;;15.30;99.90;;;;;;5053355;28;20175;-61
2023/05/09 09:59:17;;;;;;;6.05;5.28;;;15.30;99.90;;;;;;5053176;28;20584;-61
2023/05/09 10:01:59;;;;;;;6.80;5.78;;;15.30;99.90;;;;;;5053237;28;20170;-61
2023/05/09 10:04:28;;;;;;;6.07;5.47;;;15.30;99.90;;;;;;5053148;28;20179;-61
2023/05/09 10:06:55;;;;;;;5.68;5.10;;;15.30;99.90;;;;;;5053066;28;20222;-61
2023/05/09 10:09:22;;;;;;;5.88;5.28;;;15.40;99.90;;;;;;5053218;28;20199;-61
2023/05/09 10:11:50;;;;;;;7.13;6.43;;;15.30;99.90;;;;;;5053166;28;20210;-61
2023/05/09 10:14:20;;;;;;;5.75;5.25;;;15.30;99.90;;;;;;5053103;28;20183;-61
2023/05/09 10:16:47;;;;;;;6.80;6.20;;;15.30;99.90;;;;;;5053051;28;20167;-61
2023/05/09 10:19:22;;;;;;;9.75;8.85;;;15.40;99.90;;;;;;5052937;28;20163;-61
2023/05/09 10:21:56;;;;;;;8.23;7.18;;;15.40;99.90;;;;;;5053225;28;20167;-61
2023/05/09 10:24:32;;;;;;;6.90;6.30;;;15.40;99.90;;;;;;5053186;28;20401;-61
2023/05/09 10:27:04;;;;;;;7.05;6.35;;;15.50;99.90;;;;;;5052963;28;20179;-61
2023/05/09 10:29:34;;;;;;;6.00;5.40;;;15.50;99.90;;;;;;5052788;28;20264;-61
2023/05/09 10:32:15;;;;;;;6.55;5.82;;;15.40;99.90;;;;;;5053091;28;20294;-61
2023/05/09 10:34:45;;;;;;;6.05;5.45;;;15.40;99.90;;;;;;5052871;28;20675;-61
2023/05/09 10:37:12;;;;;;;5.57;5.07;;;15.40;99.90;;;;;;5052989;28;20174;-61
2023/05/09 10:39:39;;;;;;;6.85;5.38;;;15.40;99.90;;;;;;5052808;28;20215;-61
2023/05/09 10:42:06;;;;;;;6.50;5.30;;;15.40;99.90;;;;;;5052739;28;20183;-61
2023/05/09 10:44:32;;;;;;;6.10;5.25;;;15.30;99.90;;;;;;5053014;28;20600;-61
2023/05/09 10:46:59;;;;;;;6.18;5.15;;;15.30;99.90;;;;;;5052848;28;20223;-61
2023/05/09 10:49:25;;;;;;;7.40;5.68;;;15.40;99.90;;;;;;5052646;28;20201;-61
2023/05/09 10:51:51;;;;;;;8.40;5.55;;;15.30;99.90;;;;;;5052822;28;20210;-61
2023/05/09 10:54:27;;;;;;;6.32;5.20;;;15.30;99.90;;;;;;5052750;28;20207;-61
2023/05/09 10:56:54;;;;;;;5.75;5.15;;;15.20;99.90;;;;;;5052606;28;20565;-61
2023/05/09 10:59:50;;;;;;;5.10;4.70;;;15.10;99.90;;;;;;5054505;28;20552;-61
2023/05/09 11:02:19;;;;;;;5.97;4.85;;;15.20;99.90;;;;;;5047702;28;20199;-61
2023/05/09 11:04:45;;;;;;;4.97;4.40;;;15.20;99.90;;;;;;5056474;28;20211;-61
2023/05/09 11:07:25;;;;;;;3.90;3.60;;;15.30;99.90;;;;;;5056328;28;20182;-61
2023/05/09 11:10:16;;;;;;;4.22;3.53;;;15.10;99.90;;;;;;5056319;28;20245;-61
2023/05/09 11:12:56;;;;;;;5.05;2.80;;;15.00;99.90;;;;;;5050330;28;20640;-61
2023/05/09 11:15:22;;;;;;;3.53;2.55;;;14.90;99.90;;;;;;5054906;28;20584;-61
2023/05/09 11:18:08;;;;;;;2.83;2.30;;;14.90;99.90;;;;;;5056084;28;20286;-61
2023/05/09 11:20:34;;;;;;;2.63;1.90;;;14.90;99.90;;;;;;5056250;28;20179;-60
2023/05/09 11:23:02;;;;;;;4.47;2.40;;;14.90;99.90;;;;;;5056160;28;20215;-61
2023/05/09 11:25:28;;;;;;;2.30;2.10;;;14.90;99.90;;;;;;5056113;28;20250;-61
2023/05/09 11:27:59;;;;;;;2.47;2.28;;;15.00;99.90;;;;;;5055935;28;20282;-61
2023/05/09 11:30:37;;;;;;;3.30;2.60;;;14.80;99.90;;;;;;5056096;28;20524;-61
2023/05/09 11:33:05;;;;;;;2.90;2.20;;;14.80;99.90;;;;;;5055883;28;20636;-61
2023/05/09 11:35:33;;;;;;;4.55;2.30;;;14.80;99.90;;;;;;5055762;28;20663;-61
2023/05/09 11:38:00;;;;;;;2.83;2.47;;;14.70;99.90;;;;;;5055940;28;20167;-61
2023/05/09 11:40:26;;;;;;;2.67;2.13;;;14.70;99.90;;;;;;5055722;28;20199;-61
2023/05/09 11:42:54;;;;;;;2.85;2.10;;;14.70;99.90;;;;;;5055922;28;20178;-61
2023/05/09 11:45:22;;;;;;;3.40;2.20;;;14.70;99.90;;;;;;5055790;28;20217;-61
2023/05/09 11:47:48;;;;;;;2.97;2.15;;;14.70;99.90;;;;;;5055467;28;20253;-61
2023/05/09 11:50:16;;;;;;;3.38;2.70;;;14.60;99.90;;;;;;5055468;28;20668;-61
2023/05/09 11:52:42;;;;;;;3.40;2.67;;;14.70;99.90;;;;;;5055557;28;20181;-61
2023/05/09 11:55:13;;;;;;;3.28;2.25;;;14.70;99.90;;;;;;5055365;28;20199;-61
2023/05/09 11:57:50;;;;;;;3.25;2.35;;;14.70;99.90;;;;;;5055678;28;20536;-61
2023/05/09 12:00:24;;;;;;;4.00;2.45;;;14.70;99.90;;;;;;5055521;28;20170;-61
2023/05/09 12:02:51;;;;;;;2.92;2.67;;;14.70;99.90;;;;;;5055450;28;20175;-61
2023/05/09 12:05:21;;;;;;;3.28;2.72;;;14.60;99.90;;;;;;5055276;28;20266;-61
2023/05/09 12:07:47;;;;;;;3.40;2.70;;;14.60;99.90;;;;;;5055486;28;20164;-61
2023/05/09 12:10:20;;;;;;;2.60;2.40;;;14.60;99.90;;;;;;5054574;28;20238;-61
2023/05/09 12:12:48;;;;;;;3.58;2.83;;;14.60;99.90;;;;;;5055319;28;20207;-61
2023/05/09 12:15:14;;;;;;;4.28;3.05;;;14.60;99.90;;;;;;5055214;28;20175;-61
2023/05/09 12:17:44;;;;;;;3.15;2.65;;;14.50;99.90;;;;;;5055174;28;20171;-61
2023/05/09 12:20:10;;;;;;;2.55;2.35;;;14.60;99.90;;;;;;5054923;28;20182;-61
2023/05/09 12:22:36;;;;;;;2.67;2.45;;;14.50;99.90;;;;;;5055281;28;20632;-61
2023/05/09 12:25:08;;;;;;;3.90;2.58;;;14.60;99.90;;;;;;5055206;28;20581;-61
2023/05/09 12:27:35;;;;;;;2.35;2.15;;;14.50;99.90;;;;;;5054968;28;20167;-61
2023/05/09 12:30:02;;;;;;;2.08;1.90;;;14.50;99.90;;;;;;5054830;28;20199;-61
2023/05/09 12:32:31;;;;;;;2.13;1.90;;;14.60;99.90;;;;;;5054734;28;20229;-61
2023/05/09 12:34:58;;;;;;;3.38;1.80;;;14.50;99.90;;;;;;5054938;28;20229;-61
2023/05/09 12:37:24;;;;;;;1.70;1.35;;;14.50;99.90;;;;;;5054862;28;20175;-61
2023/05/09 12:40:02;;;;;;;1.60;1.50;;;14.40;99.90;;;;;;5054775;28;20540;-61
2023/05/09 12:42:29;;;;;;;2.17;1.98;;;14.40;99.90;;;;;;5054611;28;20171;-61
2023/05/09 12:44:56;;;;;;;2.05;1.60;;;14.30;99.90;;;;;;5054539;28;20167;-61
2023/05/09 12:47:24;;;;;;;3.65;2.13;;;14.40;99.90;;;;;;5054336;28;20226;-61